Time;durP1;ratioP1;P1;durP2;ratioP2;P2;SDS_P1;SDS_P2;PMS_P1;PMS_P2;Temp;Humidity;BMP_temperature;BMP_pressure;BME280_temperature;BME280_humidity;BME280_pressure;Samples;Min_cycle;Max_cycle;Signal;HPM_P1;HPM_P2
2020/12/06 00:01:04;;;;;;;25.05;15.13;;;2.40;89.50;;;;;;5034867;28;20061;-81
2020/12/06 00:03:32;;;;;;;21.13;14.25;;;2.40;89.50;;;;;;5052242;28;20473;-80
2020/12/06 00:05:57;;;;;;;20.83;12.85;;;2.40;89.50;;;;;;5051227;28;20405;-80
2020/12/06 00:08:23;;;;;;;24.60;13.75;;;2.40;89.50;;;;;;5034482;28;20116;-81
2020/12/06 00:10:49;;;;;;;26.17;16.33;;;2.40;89.50;;;;;;5034389;28;20033;-80
2020/12/06 00:13:14;;;;;;;22.10;15.00;;;2.40;89.70;;;;;;5034713;28;20044;-81
2020/12/06 00:15:40;;;;;;;24.17;14.82;;;2.30;89.80;;;;;;5034637;28;20134;-81
2020/12/06 00:18:06;;;;;;;23.48;15.30;;;2.40;90.00;;;;;;5034447;28;20025;-80
2020/12/06 00:20:31;;;;;;;21.15;15.00;;;2.30;90.00;;;;;;5018165;28;20037;-81
2020/12/06 00:22:57;;;;;;;23.35;16.02;;;2.30;90.10;;;;;;5034661;28;20033;-81
2020/12/06 00:25:23;;;;;;;22.73;15.50;;;2.30;90.10;;;;;;5034556;28;20041;-80
2020/12/06 00:27:49;;;;;;;28.80;17.80;;;2.30;90.40;;;;;;5052237;28;20040;-80
2020/12/06 00:30:14;;;;;;;24.90;16.58;;;2.30;90.40;;;;;;5034603;28;20431;-81
2020/12/06 00:32:40;;;;;;;24.90;17.30;;;2.30;90.20;;;;;;5038895;28;20119;-80
2020/12/06 00:35:07;;;;;;;23.67;15.80;;;2.30;90.30;;;;;;5037590;28;20032;-80
2020/12/06 00:37:34;;;;;;;27.35;16.58;;;2.40;90.30;;;;;;5037650;28;20115;-81
2020/12/06 00:39:59;;;;;;;25.33;16.17;;;2.40;90.30;;;;;;5038032;28;20512;-81
2020/12/06 00:42:25;;;;;;;25.58;17.80;;;2.40;90.30;;;;;;5038066;28;20029;-81
2020/12/06 00:44:51;;;;;;;24.58;16.80;;;2.40;90.20;;;;;;5051546;28;20486;-81
2020/12/06 00:47:16;;;;;;;21.92;15.48;;;2.40;90.20;;;;;;5054401;28;20163;-81
2020/12/06 00:49:42;;;;;;;21.45;14.90;;;2.40;90.20;;;;;;5054493;28;20092;-80
2020/12/06 00:52:07;;;;;;;21.92;14.95;;;2.40;90.20;;;;;;5054536;28;20055;-82
2020/12/06 00:54:33;;;;;;;23.10;14.68;;;2.30;90.20;;;;;;5053864;28;20029;-81
2020/12/06 00:56:59;;;;;;;21.52;15.25;;;2.30;90.20;;;;;;5043136;28;20071;-80
2020/12/06 00:59:24;;;;;;;21.40;14.85;;;2.30;90.20;;;;;;5037809;28;20029;-81
2020/12/06 01:01:50;;;;;;;21.73;14.57;;;2.30;90.20;;;;;;5039946;28;20060;-80
2020/12/06 01:04:16;;;;;;;20.02;14.38;;;2.30;90.20;;;;;;5054842;28;20032;-81
2020/12/06 01:06:42;;;;;;;23.35;15.38;;;2.20;90.20;;;;;;5037655;28;20029;-81
2020/12/06 01:09:07;;;;;;;29.42;19.02;;;2.20;90.30;;;;;;5019097;28;20497;-81
2020/12/06 01:11:33;;;;;;;23.67;16.10;;;2.20;90.30;;;;;;5031223;28;20036;-81
2020/12/06 01:13:59;;;;;;;21.70;15.95;;;2.10;90.30;;;;;;5017712;28;20026;-81
2020/12/06 01:16:24;;;;;;;23.08;16.65;;;2.10;90.40;;;;;;5017751;28;20021;-80
2020/12/06 01:18:50;;;;;;;21.83;16.30;;;2.00;90.40;;;;;;5017569;28;20026;-81
2020/12/06 01:21:15;;;;;;;25.88;15.90;;;2.10;90.70;;;;;;5014952;28;20030;-81
2020/12/06 01:23:41;;;;;;;26.48;17.50;;;2.10;90.40;;;;;;5024602;28;20116;-80
2020/12/06 01:26:16;;;;;;;26.30;16.40;;;2.10;90.40;;;;;;5046553;28;20029;-80
2020/12/06 01:28:41;;;;;;;24.10;16.15;;;2.00;90.40;;;;;;5023181;28;20116;-81
2020/12/06 01:31:07;;;;;;;25.85;17.23;;;2.00;90.40;;;;;;5036140;28;20537;-80
2020/12/06 01:33:34;;;;;;;23.20;16.10;;;2.00;90.40;;;;;;5053788;28;20112;-80
2020/12/06 01:35:59;;;;;;;24.23;17.35;;;2.00;90.50;;;;;;5053376;28;20067;-80
2020/12/06 01:38:25;;;;;;;25.30;16.30;;;2.00;90.40;;;;;;5036721;28;20069;-79
2020/12/06 01:40:51;;;;;;;23.52;16.20;;;2.10;90.50;;;;;;5054530;28;20021;-79
2020/12/06 01:43:16;;;;;;;24.58;16.20;;;2.10;90.40;;;;;;5020157;28;20029;-80
2020/12/06 01:45:42;;;;;;;21.58;15.60;;;2.10;90.40;;;;;;5053814;28;20059;-79
2020/12/06 01:48:09;;;;;;;25.70;16.67;;;2.10;90.40;;;;;;5036854;28;20082;-79
2020/12/06 01:50:38;;;;;;;24.05;17.05;;;2.10;90.40;;;;;;5054602;28;20040;-79
2020/12/06 01:53:04;;;;;;;24.38;16.58;;;2.10;90.40;;;;;;5045000;28;20032;-79
2020/12/06 01:55:31;;;;;;;24.45;15.82;;;2.10;90.40;;;;;;5036606;28;20029;-79
2020/12/06 01:58:07;;;;;;;26.02;16.02;;;2.10;90.40;;;;;;5036271;28;20480;-79
2020/12/06 02:00:34;;;;;;;24.85;15.43;;;2.10;90.40;;;;;;5020971;28;20472;-80
2020/12/06 02:03:00;;;;;;;26.42;16.70;;;2.10;90.30;;;;;;5040672;28;20186;-79
2020/12/06 02:05:29;;;;;;;24.08;15.52;;;2.10;90.40;;;;;;5053753;28;20033;-79
2020/12/06 02:07:58;;;;;;;22.70;14.82;;;2.00;90.40;;;;;;5049436;28;20025;-79
2020/12/06 02:10:29;;;;;;;25.45;15.60;;;2.00;90.40;;;;;;5034919;28;20450;-79
2020/12/06 02:12:56;;;;;;;28.75;16.17;;;2.00;90.40;;;;;;5053525;28;20505;-79
2020/12/06 02:15:22;;;;;;;22.83;15.75;;;2.00;90.50;;;;;;5034339;28;20060;-79
2020/12/06 02:17:49;;;;;;;23.85;16.10;;;2.00;90.40;;;;;;5019347;28;20070;-79
2020/12/06 02:20:15;;;;;;;23.45;15.80;;;1.90;90.40;;;;;;5016664;28;20679;-79
2020/12/06 02:22:40;;;;;;;21.10;14.65;;;2.00;90.40;;;;;;5050058;28;20021;-79
2020/12/06 02:25:06;;;;;;;20.75;14.50;;;2.00;90.50;;;;;;5053185;28;20025;-79
2020/12/06 02:27:32;;;;;;;26.00;15.25;;;1.90;90.40;;;;;;5036356;28;20037;-79
2020/12/06 02:29:58;;;;;;;23.98;15.77;;;1.90;90.50;;;;;;5052750;28;20477;-79
2020/12/06 02:32:23;;;;;;;24.23;15.75;;;1.90;90.50;;;;;;5051813;28;20083;-79
2020/12/06 02:34:49;;;;;;;23.60;16.05;;;1.90;90.50;;;;;;5036188;28;20040;-79
2020/12/06 02:37:15;;;;;;;25.85;17.10;;;1.90;90.50;;;;;;5050818;28;20049;-79
2020/12/06 02:39:41;;;;;;;26.40;17.75;;;1.90;90.50;;;;;;5041742;28;20025;-79
2020/12/06 02:42:07;;;;;;;25.40;18.75;;;1.90;90.50;;;;;;5024073;28;20032;-79
2020/12/06 02:44:32;;;;;;;26.20;17.23;;;1.90;90.50;;;;;;5052980;28;20037;-79
2020/12/06 02:46:59;;;;;;;24.73;17.10;;;1.90;90.40;;;;;;5035682;28;20033;-79
2020/12/06 02:49:26;;;;;;;26.95;18.38;;;1.90;90.40;;;;;;5053280;28;20032;-79
2020/12/06 02:51:52;;;;;;;23.33;15.63;;;1.90;90.40;;;;;;5052771;28;20025;-79
2020/12/06 02:54:18;;;;;;;27.15;16.05;;;1.80;90.70;;;;;;5016288;28;20490;-79
2020/12/06 02:56:43;;;;;;;22.63;15.45;;;1.80;90.50;;;;;;5035809;28;20036;-79
2020/12/06 02:59:09;;;;;;;29.58;18.45;;;1.80;90.50;;;;;;5037366;28;20602;-79
2020/12/06 03:01:34;;;;;;;23.60;17.00;;;1.80;90.50;;;;;;5035582;28;20031;-79
2020/12/06 03:04:00;;;;;;;24.33;16.60;;;1.80;90.50;;;;;;5035405;28;20107;-79
2020/12/06 03:06:26;;;;;;;24.65;16.40;;;1.80;90.50;;;;;;5035812;28;20493;-79
2020/12/06 03:08:52;;;;;;;21.52;14.63;;;1.90;90.60;;;;;;5052937;28;20029;-79
2020/12/06 03:11:18;;;;;;;26.15;16.98;;;1.90;90.60;;;;;;5036834;28;20090;-82
2020/12/06 03:13:44;;;;;;;24.92;17.00;;;1.90;90.60;;;;;;5037474;28;20025;-83
2020/12/06 03:16:09;;;;;;;28.17;18.05;;;1.90;90.60;;;;;;5035279;28;20427;-82
2020/12/06 03:18:35;;;;;;;27.17;18.30;;;1.90;90.60;;;;;;5044961;28;20029;-83
2020/12/06 03:21:02;;;;;;;24.23;16.00;;;1.90;90.60;;;;;;5053227;28;20053;-83
2020/12/06 03:23:28;;;;;;;23.38;15.85;;;1.90;90.60;;;;;;5053274;28;20078;-83
2020/12/06 03:25:53;;;;;;;23.05;15.80;;;1.90;90.60;;;;;;5015515;28;20041;-83
2020/12/06 03:28:19;;;;;;;22.23;14.82;;;2.00;90.60;;;;;;5032543;28;20507;-83
2020/12/06 03:30:45;;;;;;;24.52;15.18;;;1.90;90.60;;;;;;5053154;28;20033;-83
2020/12/06 03:33:10;;;;;;;27.35;17.33;;;2.00;90.90;;;;;;5017380;28;20034;-79
2020/12/06 03:35:36;;;;;;;30.85;19.10;;;1.90;90.70;;;;;;5034846;28;20175;-79
2020/12/06 03:38:02;;;;;;;25.77;16.52;;;1.90;90.70;;;;;;5042723;28;20056;-79
2020/12/06 03:40:28;;;;;;;27.90;17.88;;;1.90;90.70;;;;;;5038332;28;20025;-79
2020/12/06 03:42:53;;;;;;;22.50;14.93;;;1.90;90.70;;;;;;5026954;28;20102;-79
2020/12/06 03:45:20;;;;;;;23.38;15.05;;;1.90;90.70;;;;;;5050933;28;20481;-80
2020/12/06 03:47:46;;;;;;;25.05;15.23;;;1.80;90.80;;;;;;5040272;28;20068;-79
2020/12/06 03:50:13;;;;;;;27.08;16.48;;;1.90;90.80;;;;;;5049286;28;20025;-79
2020/12/06 03:52:38;;;;;;;28.00;17.23;;;1.90;90.80;;;;;;5050094;28;20116;-79
2020/12/06 03:55:04;;;;;;;27.02;17.65;;;1.90;90.80;;;;;;5043157;28;20109;-79
2020/12/06 03:57:30;;;;;;;23.00;15.80;;;1.90;90.80;;;;;;5036289;28;20071;-79
2020/12/06 03:59:56;;;;;;;27.58;17.33;;;1.90;90.80;;;;;;5051693;28;20029;-83
2020/12/06 04:02:21;;;;;;;24.90;16.52;;;1.90;90.80;;;;;;5034788;28;20090;-83
2020/12/06 04:04:47;;;;;;;23.02;16.38;;;1.90;90.80;;;;;;5045032;28;20040;-83
2020/12/06 04:07:12;;;;;;;25.83;16.38;;;1.90;90.80;;;;;;5053475;28;20362;-80
2020/12/06 04:09:38;;;;;;;25.70;16.70;;;1.90;90.80;;;;;;5022355;28;20033;-80
2020/12/06 04:12:04;;;;;;;24.83;15.13;;;1.90;90.80;;;;;;5022307;28;20025;-81
2020/12/06 04:14:29;;;;;;;26.33;15.73;;;1.90;90.80;;;;;;5045929;28;20067;-81
2020/12/06 04:16:55;;;;;;;24.48;15.50;;;2.00;90.80;;;;;;5056281;28;20021;-81
2020/12/06 04:19:20;;;;;;;26.20;17.10;;;1.90;90.80;;;;;;5038183;28;20021;-80
2020/12/06 04:21:46;;;;;;;27.73;17.67;;;2.00;90.80;;;;;;5038189;28;20488;-80
2020/12/06 04:24:12;;;;;;;24.98;16.55;;;1.90;90.80;;;;;;5021607;28;20560;-80
2020/12/06 04:26:39;;;;;;;23.75;16.13;;;1.90;90.80;;;;;;5042339;28;20113;-81
2020/12/06 04:29:04;;;;;;;28.20;16.95;;;1.90;90.80;;;;;;5054976;28;20025;-81
2020/12/06 04:31:30;;;;;;;27.63;16.45;;;1.90;90.80;;;;;;5048956;28;20032;-81
2020/12/06 04:33:56;;;;;;;27.92;16.77;;;1.90;90.80;;;;;;5037965;28;20470;-80
2020/12/06 04:36:21;;;;;;;27.40;15.80;;;1.90;90.90;;;;;;5024742;28;20033;-80
2020/12/06 04:38:47;;;;;;;24.75;16.33;;;1.80;90.80;;;;;;5033090;28;20520;-80
2020/12/06 04:41:13;;;;;;;26.38;16.65;;;1.80;90.90;;;;;;5043804;28;20029;-81
2020/12/06 04:43:40;;;;;;;24.35;14.80;;;1.80;91.20;;;;;;5052129;28;20397;-81
2020/12/06 04:46:07;;;;;;;22.13;14.35;;;1.80;91.00;;;;;;5052183;28;20086;-80
2020/12/06 04:48:47;;;;;;;20.88;13.23;;;1.80;91.00;;;;;;5055530;28;20044;-81
2020/12/06 04:51:14;;;;;;;23.98;14.40;;;1.80;91.00;;;;;;5055797;28;20029;-80
2020/12/06 04:53:54;;;;;;;23.92;15.48;;;1.80;91.00;;;;;;5054583;28;20052;-80
2020/12/06 04:56:22;;;;;;;28.48;16.13;;;1.80;91.00;;;;;;5055668;28;20033;-81
2020/12/06 04:58:50;;;;;;;22.07;15.10;;;1.80;91.00;;;;;;5055753;28;20028;-80
2020/12/06 05:01:17;;;;;;;23.70;14.57;;;1.80;91.00;;;;;;5055562;28;20267;-81
2020/12/06 05:03:45;;;;;;;19.13;13.50;;;1.70;91.00;;;;;;5019963;28;20029;-80
2020/12/06 05:06:13;;;;;;;18.98;12.73;;;1.80;91.00;;;;;;5034217;28;20033;-81
2020/12/06 05:08:41;;;;;;;24.55;15.07;;;1.70;91.00;;;;;;5018081;28;20033;-81
2020/12/06 05:11:07;;;;;;;22.25;14.27;;;1.80;91.00;;;;;;5048605;28;20033;-80
2020/12/06 05:13:32;;;;;;;22.75;13.82;;;1.80;91.00;;;;;;5037739;28;20032;-80
2020/12/06 05:16:00;;;;;;;21.67;14.07;;;1.80;91.00;;;;;;5004072;28;20504;-81
2020/12/06 05:18:26;;;;;;;20.67;13.10;;;1.80;90.90;;;;;;5035035;28;20033;-80
2020/12/06 05:20:52;;;;;;;25.70;15.20;;;1.80;90.90;;;;;;5037099;28;20485;-80
2020/12/06 05:23:18;;;;;;;25.60;13.80;;;1.80;90.90;;;;;;5020926;28;20029;-81
2020/12/06 05:25:45;;;;;;;22.00;13.52;;;1.80;90.90;;;;;;5021050;28;20444;-81
2020/12/06 05:28:11;;;;;;;22.00;14.60;;;1.80;91.20;;;;;;5055277;28;20424;-81
2020/12/06 05:30:40;;;;;;;22.05;14.20;;;1.80;90.90;;;;;;5037422;28;20136;-81
2020/12/06 05:33:06;;;;;;;23.42;14.50;;;1.80;90.80;;;;;;5020918;28;20231;-80
2020/12/06 05:35:32;;;;;;;21.48;13.75;;;1.80;90.90;;;;;;5027268;28;20549;-81
2020/12/06 05:37:57;;;;;;;20.25;12.85;;;1.70;90.90;;;;;;5053434;28;20048;-81
2020/12/06 05:40:23;;;;;;;21.50;12.93;;;1.70;90.90;;;;;;5037051;28;20025;-80
2020/12/06 05:42:49;;;;;;;20.00;13.23;;;1.70;90.90;;;;;;5036963;28;20032;-81
2020/12/06 05:45:18;;;;;;;18.95;13.50;;;1.70;90.90;;;;;;5044920;28;20064;-81
2020/12/06 05:47:45;;;;;;;22.77;13.38;;;1.80;90.90;;;;;;5036507;28;20037;-81
2020/12/06 05:50:11;;;;;;;20.00;12.23;;;1.80;90.90;;;;;;5044598;28;20025;-81
2020/12/06 05:52:36;;;;;;;19.02;13.10;;;1.80;90.80;;;;;;5054265;28;20469;-81
2020/12/06 05:55:03;;;;;;;22.98;14.02;;;1.90;90.80;;;;;;5030044;28;20044;-81
2020/12/06 05:57:30;;;;;;;25.30;14.30;;;1.90;90.80;;;;;;5037210;28;20033;-81
2020/12/06 05:59:58;;;;;;;23.02;14.43;;;1.90;90.80;;;;;;5038241;28;20032;-81
2020/12/06 06:02:25;;;;;;;25.40;15.75;;;1.90;90.80;;;;;;5036242;28;20071;-81
2020/12/06 06:04:52;;;;;;;20.92;13.73;;;1.90;90.90;;;;;;5053827;28;20059;-81
2020/12/06 06:07:23;;;;;;;25.10;14.57;;;1.80;90.90;;;;;;5036302;28;20044;-82
2020/12/06 06:09:59;;;;;;;21.33;13.75;;;1.80;90.90;;;;;;5047547;28;20033;-81
2020/12/06 06:12:32;;;;;;;18.08;11.68;;;1.80;90.90;;;;;;5053920;28;20021;-81
2020/12/06 06:15:00;;;;;;;20.60;13.85;;;1.80;90.90;;;;;;5052659;28;20040;-81
2020/12/06 06:17:30;;;;;;;20.13;13.65;;;1.80;90.90;;;;;;5035902;28;20023;-81
2020/12/06 06:19:56;;;;;;;21.90;13.50;;;1.90;90.90;;;;;;5053131;28;20378;-81
2020/12/06 06:22:40;;;;;;;25.15;14.55;;;1.90;90.90;;;;;;5044358;28;20029;-80
2020/12/06 06:25:06;;;;;;;22.55;14.40;;;1.90;90.90;;;;;;5053444;28;20148;-81
2020/12/06 06:27:34;;;;;;;25.33;15.85;;;1.90;90.90;;;;;;5036004;28;20059;-80
2020/12/06 06:30:00;;;;;;;24.75;14.20;;;1.80;90.90;;;;;;5018751;28;20037;-83
2020/12/06 06:32:26;;;;;;;24.67;15.68;;;1.90;91.00;;;;;;5020076;28;20499;-81
2020/12/06 06:34:53;;;;;;;23.95;16.20;;;1.90;91.00;;;;;;5052544;28;20052;-81
2020/12/06 06:37:18;;;;;;;24.58;15.02;;;1.90;91.00;;;;;;5053695;28;20499;-81
2020/12/06 06:39:44;;;;;;;24.65;16.20;;;1.90;91.10;;;;;;5036225;28;20029;-81
2020/12/06 06:42:13;;;;;;;21.85;14.18;;;1.90;91.10;;;;;;5036800;28;20043;-80
2020/12/06 06:44:41;;;;;;;23.77;14.48;;;1.90;91.10;;;;;;5036056;28;20025;-81
2020/12/06 06:47:09;;;;;;;23.58;14.90;;;1.90;91.10;;;;;;5052006;28;20087;-81
2020/12/06 06:49:49;;;;;;;25.88;15.95;;;2.00;91.10;;;;;;5052173;28;20477;-80
2020/12/06 06:52:16;;;;;;;19.38;13.25;;;2.00;91.10;;;;;;5049170;28;20037;-81
2020/12/06 06:54:50;;;;;;;21.88;14.40;;;2.00;91.00;;;;;;5053462;28;20029;-81
2020/12/06 06:57:17;;;;;;;24.88;14.68;;;2.00;91.00;;;;;;5035783;28;20075;-80
2020/12/06 06:59:54;;;;;;;22.92;14.73;;;2.00;90.90;;;;;;5035386;28;20493;-81
2020/12/06 07:02:39;;;;;;;23.60;13.98;;;2.00;91.20;;;;;;5053449;28;20477;-81
2020/12/06 07:05:26;;;;;;;22.75;15.23;;;2.00;91.00;;;;;;4999502;28;20033;-81
2020/12/06 07:07:53;;;;;;;25.83;14.85;;;2.00;91.00;;;;;;5029762;28;20545;-81
2020/12/06 07:10:27;;;;;;;27.30;17.05;;;2.00;91.00;;;;;;5035771;28;20037;-82
2020/12/06 07:12:58;;;;;;;25.02;16.23;;;2.00;91.10;;;;;;5035435;28;20432;-83
2020/12/06 07:15:26;;;;;;;24.35;16.17;;;2.00;91.10;;;;;;5053341;28;20032;-82
2020/12/06 07:17:54;;;;;;;29.30;16.35;;;2.00;91.10;;;;;;5051955;28;20048;-82
2020/12/06 07:20:21;;;;;;;26.52;16.95;;;2.10;91.40;;;;;;5052057;28;20370;-82
2020/12/06 07:22:47;;;;;;;24.15;15.27;;;2.10;91.10;;;;;;5051987;28;20470;-82
2020/12/06 07:25:15;;;;;;;25.85;15.45;;;2.10;91.10;;;;;;5052177;28;20029;-83
2020/12/06 07:27:41;;;;;;;26.42;14.57;;;2.10;91.10;;;;;;5053055;28;20366;-82
2020/12/06 07:30:09;;;;;;;25.90;16.08;;;2.10;91.10;;;;;;5035337;28;20037;-82
2020/12/06 07:32:35;;;;;;;23.35;14.30;;;2.20;91.10;;;;;;5035272;28;20083;-83
2020/12/06 07:35:01;;;;;;;25.83;16.17;;;2.20;91.10;;;;;;5018585;28;20025;-82
2020/12/06 07:37:28;;;;;;;26.08;15.93;;;2.20;91.10;;;;;;5035129;28;20053;-82
2020/12/06 07:39:53;;;;;;;25.90;16.83;;;2.20;91.10;;;;;;5035224;28;20071;-82
2020/12/06 07:42:27;;;;;;;26.42;15.57;;;2.20;91.20;;;;;;5037568;28;20041;-82
2020/12/06 07:44:58;;;;;;;25.08;15.93;;;2.20;91.20;;;;;;5039291;28;20029;-82
2020/12/06 07:47:24;;;;;;;25.15;14.80;;;2.20;91.20;;;;;;5039231;28;20036;-82
2020/12/06 07:49:55;;;;;;;28.27;16.65;;;2.20;91.10;;;;;;5039141;28;20025;-82
2020/12/06 07:52:29;;;;;;;22.45;14.95;;;2.20;91.10;;;;;;5038904;28;20055;-82
2020/12/06 07:55:05;;;;;;;25.17;16.05;;;2.20;91.20;;;;;;5056813;28;20452;-82
2020/12/06 07:57:56;;;;;;;25.27;15.95;;;2.20;91.20;;;;;;5056883;28;20096;-82
2020/12/06 08:00:28;;;;;;;25.85;16.33;;;2.30;91.20;;;;;;5038349;28;20033;-82
2020/12/06 08:02:58;;;;;;;24.52;15.88;;;2.20;91.10;;;;;;5038971;28;20120;-82
2020/12/06 08:05:29;;;;;;;25.70;16.75;;;2.20;91.20;;;;;;5039386;28;20028;-82
2020/12/06 08:07:58;;;;;;;32.60;18.40;;;2.20;91.30;;;;;;5056567;28;20075;-82
2020/12/06 08:10:25;;;;;;;;;;;2.30;91.30;;;;;;5057039;28;20025;-82
2020/12/06 08:12:53;;;;;;;34.38;18.88;;;2.30;91.20;;;;;;5038715;28;19920;-82
2020/12/06 08:15:23;;;;;;;31.70;18.48;;;2.30;91.30;;;;;;5038509;28;20056;-82
2020/12/06 08:17:50;;;;;;;31.55;18.10;;;2.30;91.30;;;;;;5038892;28;20031;-82
2020/12/06 08:20:20;;;;;;;23.75;14.73;;;2.30;91.30;;;;;;5056370;28;20029;-82
2020/12/06 08:22:53;;;;;;;29.13;17.23;;;2.40;91.30;;;;;;5056390;28;20025;-83
2020/12/06 08:25:24;;;;;;;27.02;16.95;;;2.40;91.20;;;;;;5035034;28;20116;-78
2020/12/06 08:27:51;;;;;;;26.67;15.77;;;2.40;91.20;;;;;;5036582;28;20025;-78
2020/12/06 08:30:18;;;;;;;24.73;15.68;;;2.40;91.20;;;;;;5050625;28;20032;-78
2020/12/06 08:32:54;;;;;;;34.30;18.42;;;2.40;91.20;;;;;;5038412;28;20116;-78
2020/12/06 08:35:41;;;;;;;28.48;17.10;;;2.40;91.20;;;;;;5037768;28;20037;-78
2020/12/06 08:38:42;;;;;;;27.40;17.70;;;2.40;91.20;;;;;;5055173;28;20041;-78
2020/12/06 08:41:11;;;;;;;30.85;19.15;;;2.40;91.20;;;;;;4956139;29;20043;-78
2020/12/06 08:43:43;;;;;;;32.28;18.83;;;2.40;91.20;;;;;;5037845;28;20041;-78
2020/12/06 08:46:10;;;;;;;27.45;17.92;;;2.50;91.20;;;;;;5056056;28;20029;-78
2020/12/06 08:48:36;;;;;;;26.70;16.83;;;2.40;91.10;;;;;;5021823;28;20063;-78
2020/12/06 08:51:01;;;;;;;30.80;17.13;;;2.50;91.20;;;;;;5053994;28;20017;-78
2020/12/06 08:53:27;;;;;;;27.35;17.33;;;2.40;91.10;;;;;;5037223;28;20036;-82
2020/12/06 08:55:53;;;;;;;25.73;16.27;;;2.50;91.10;;;;;;5037968;28;20029;-81
2020/12/06 08:58:36;;;;;;;28.65;17.70;;;2.50;91.10;;;;;;5021771;28;20029;-83
2020/12/06 09:01:02;;;;;;;28.80;17.80;;;2.50;91.10;;;;;;5047655;28;20122;-83
2020/12/06 09:03:28;;;;;;;26.98;17.08;;;2.60;91.00;;;;;;5056176;28;20033;-83
2020/12/06 09:05:54;;;;;;;32.92;20.58;;;2.60;91.00;;;;;;5028591;28;20029;-83
2020/12/06 09:08:20;;;;;;;34.13;21.23;;;2.60;91.00;;;;;;5035727;28;20029;-84
2020/12/06 09:10:45;;;;;;;32.47;20.17;;;2.70;91.10;;;;;;5062747;28;20036;-89
2020/12/06 09:13:11;;;;;;;35.45;20.92;;;2.70;91.10;;;;;;5043460;28;20489;-83
2020/12/06 09:15:36;;;;;;;27.67;18.75;;;2.70;91.20;;;;;;5061577;28;20032;-82
2020/12/06 09:18:02;;;;;;;35.25;21.13;;;2.70;91.20;;;;;;5041643;28;20385;-77
2020/12/06 09:20:27;;;;;;;32.55;20.25;;;2.70;91.10;;;;;;5037477;28;20029;-77
2020/12/06 09:22:53;;;;;;;37.60;21.42;;;2.70;91.10;;;;;;5020905;28;20059;-77
2020/12/06 09:25:19;;;;;;;34.10;21.58;;;2.80;91.20;;;;;;5037411;28;20078;-78
2020/12/06 09:27:44;;;;;;;39.00;22.50;;;2.80;91.10;;;;;;5037328;28;20084;-78
2020/12/06 09:30:10;;;;;;;36.38;22.20;;;2.90;91.20;;;;;;5053822;28;20072;-78
2020/12/06 09:32:35;;;;;;;34.47;20.35;;;2.90;91.20;;;;;;5054008;28;20470;-78
2020/12/06 09:35:01;;;;;;;32.30;20.85;;;2.90;91.10;;;;;;5049958;28;20112;-79
2020/12/06 09:37:27;;;;;;;30.95;20.35;;;2.90;91.10;;;;;;5054650;28;20071;-78
2020/12/06 09:39:52;;;;;;;34.25;21.95;;;3.00;91.10;;;;;;5054306;28;20426;-78
2020/12/06 09:42:18;;;;;;;39.55;21.77;;;3.00;91.10;;;;;;5044403;28;20081;-79
2020/12/06 09:44:44;;;;;;;35.60;22.02;;;3.10;91.10;;;;;;5036312;28;20060;-79
2020/12/06 09:47:09;;;;;;;37.70;22.33;;;3.10;91.10;;;;;;5019877;28;20044;-79
2020/12/06 09:49:35;;;;;;;39.00;22.83;;;3.10;91.10;;;;;;5020774;28;20033;-79
2020/12/06 09:52:02;;;;;;;36.25;22.15;;;3.20;91.10;;;;;;5039101;28;20032;-79
2020/12/06 09:54:27;;;;;;;36.15;22.20;;;3.20;91.10;;;;;;5055225;28;20120;-78
2020/12/06 09:56:53;;;;;;;41.03;24.17;;;3.20;91.00;;;;;;5037103;28;20103;-77
2020/12/06 09:59:18;;;;;;;38.40;23.13;;;3.30;91.00;;;;;;5020336;28;20036;-80
2020/12/06 10:01:44;;;;;;;38.25;23.13;;;3.30;91.00;;;;;;5037081;28;20021;-78
2020/12/06 10:04:10;;;;;;;41.50;24.27;;;3.40;91.20;;;;;;5036357;28;20029;-78
2020/12/06 10:06:35;;;;;;;43.55;25.83;;;3.40;91.00;;;;;;5036117;28;20025;-79
2020/12/06 10:09:01;;;;;;;42.47;25.67;;;3.40;90.90;;;;;;5053133;28;20075;-77
2020/12/06 10:11:26;;;;;;;38.60;24.45;;;3.50;90.90;;;;;;5048150;28;20044;-77
2020/12/06 10:13:52;;;;;;;39.75;24.60;;;3.50;90.90;;;;;;5054164;28;20025;-77
2020/12/06 10:16:18;;;;;;;37.67;22.88;;;3.60;90.90;;;;;;5040513;28;20037;-77
2020/12/06 10:18:44;;;;;;;36.83;22.90;;;3.70;90.80;;;;;;5036686;28;20025;-78
2020/12/06 10:21:12;;;;;;;44.08;26.80;;;3.80;90.70;;;;;;5054002;28;20070;-78
2020/12/06 10:23:38;;;;;;;42.83;24.92;;;3.80;90.70;;;;;;5054143;28;20481;-78
2020/12/06 10:26:04;;;;;;;40.45;24.27;;;3.90;90.70;;;;;;5058573;28;20115;-78
2020/12/06 10:28:29;;;;;;;42.92;24.65;;;3.90;90.70;;;;;;5032552;28;20468;-78
2020/12/06 10:30:55;;;;;;;40.50;22.98;;;4.00;90.60;;;;;;5044877;28;20036;-77
2020/12/06 10:33:20;;;;;;;48.83;27.83;;;4.00;90.60;;;;;;5043289;28;20035;-78
2020/12/06 10:35:46;;;;;;;39.80;24.65;;;4.10;90.60;;;;;;5062717;28;20021;-77
2020/12/06 10:38:12;;;;;;;39.20;23.30;;;4.10;90.60;;;;;;5063435;28;20079;-78
2020/12/06 10:40:38;;;;;;;40.00;24.63;;;4.20;90.60;;;;;;5025115;28;20032;-78
2020/12/06 10:43:05;;;;;;;39.72;24.42;;;4.20;90.40;;;;;;5060567;28;20119;-77
2020/12/06 10:45:30;;;;;;;40.20;22.98;;;4.20;90.40;;;;;;5058630;28;20024;-80
2020/12/06 10:47:56;;;;;;;42.63;25.52;;;4.20;90.40;;;;;;5041273;28;20028;-79
2020/12/06 10:50:22;;;;;;;36.13;23.48;;;4.30;90.40;;;;;;5038190;28;20041;-78
2020/12/06 10:52:47;;;;;;;38.63;23.52;;;4.30;90.30;;;;;;5041905;28;20044;-78
2020/12/06 10:55:13;;;;;;;39.50;23.73;;;4.30;90.30;;;;;;5057434;28;20032;-78
2020/12/06 10:57:38;;;;;;;38.28;23.27;;;4.30;90.30;;;;;;5041342;28;20021;-78
2020/12/06 11:00:06;;;;;;;42.80;26.00;;;4.30;90.30;;;;;;5039007;28;20032;-76
2020/12/06 11:02:31;;;;;;;39.97;23.48;;;4.20;90.30;;;;;;5037967;28;20025;-76
2020/12/06 11:04:58;;;;;;;38.22;23.58;;;4.20;90.40;;;;;;5058550;28;20032;-76
2020/12/06 11:07:24;;;;;;;40.38;24.98;;;4.20;90.40;;;;;;5039539;28;20032;-76
2020/12/06 11:09:49;;;;;;;34.90;20.98;;;4.20;90.40;;;;;;5026464;28;20523;-76
2020/12/06 11:12:15;;;;;;;37.40;23.70;;;4.20;90.50;;;;;;5021307;28;20079;-75
2020/12/06 11:14:43;;;;;;;40.97;24.38;;;4.20;90.40;;;;;;5023078;28;20026;-78
2020/12/06 11:17:09;;;;;;;42.75;25.17;;;4.20;90.50;;;;;;5018613;28;20032;-86
2020/12/06 11:19:35;;;;;;;39.20;24.00;;;4.20;90.50;;;;;;5039682;28;20037;-87
2020/12/06 11:22:01;;;;;;;40.78;26.08;;;4.30;90.50;;;;;;5036698;28;20429;-88
2020/12/06 11:24:30;;;;;;;37.67;24.33;;;4.30;90.50;;;;;;5031384;28;20025;-82
2020/12/06 11:26:56;;;;;;;36.78;23.80;;;4.30;90.50;;;;;;5017052;28;20029;-79
2020/12/06 11:29:22;;;;;;;39.67;23.92;;;4.30;90.50;;;;;;5018805;28;20032;-78
2020/12/06 11:31:48;;;;;;;40.53;25.40;;;4.40;90.50;;;;;;5035003;28;20096;-78
2020/12/06 11:34:13;;;;;;;40.63;26.48;;;4.40;90.50;;;;;;5040324;28;20099;-78
2020/12/06 11:36:39;;;;;;;39.85;23.85;;;4.40;90.50;;;;;;5062980;28;20029;-79
2020/12/06 11:39:05;;;;;;;38.88;22.30;;;4.40;90.40;;;;;;5034224;28;20041;-78
2020/12/06 11:41:30;;;;;;;36.15;23.92;;;4.40;90.40;;;;;;5034681;28;20024;-79
2020/12/06 11:43:56;;;;;;;45.45;26.70;;;4.50;90.50;;;;;;5034551;28;20024;-79
2020/12/06 11:46:22;;;;;;;52.00;30.88;;;4.50;90.70;;;;;;5015536;28;20034;-78
2020/12/06 11:48:47;;;;;;;50.08;28.63;;;4.50;90.60;;;;;;5018047;28;20033;-79
2020/12/06 11:51:13;;;;;;;45.38;28.50;;;4.50;90.50;;;;;;5034799;28;20040;-78
2020/12/06 11:53:41;;;;;;;42.45;26.27;;;4.50;90.60;;;;;;5034584;28;20061;-78
2020/12/06 11:56:07;;;;;;;44.20;27.58;;;4.50;90.60;;;;;;5034401;28;20436;-78
2020/12/06 11:58:33;;;;;;;42.63;27.48;;;4.50;90.60;;;;;;5052245;28;20032;-78
2020/12/06 12:00:58;;;;;;;47.25;27.38;;;4.60;90.60;;;;;;5050867;28;20029;-78
2020/12/06 12:03:26;;;;;;;42.38;27.30;;;4.60;90.60;;;;;;5036081;28;20048;-79
2020/12/06 12:05:52;;;;;;;48.55;28.38;;;4.60;90.60;;;;;;5033975;28;20048;-80
2020/12/06 12:08:17;;;;;;;44.83;28.20;;;4.70;90.70;;;;;;5033334;28;20524;-75
2020/12/06 12:10:43;;;;;;;47.42;28.45;;;4.70;90.70;;;;;;5037806;28;20032;-76
2020/12/06 12:13:08;;;;;;;49.30;30.00;;;4.70;90.70;;;;;;5035691;28;20033;-76
2020/12/06 12:15:34;;;;;;;44.75;27.23;;;4.70;90.70;;;;;;5019797;28;20128;-77
2020/12/06 12:18:00;;;;;;;52.17;29.88;;;4.80;90.70;;;;;;5003866;28;20029;-77
2020/12/06 12:20:25;;;;;;;44.67;28.35;;;4.80;90.70;;;;;;5011183;28;20044;-75
2020/12/06 12:22:51;;;;;;;46.05;28.02;;;4.80;90.70;;;;;;5010367;28;20025;-76
2020/12/06 12:25:16;;;;;;;44.58;26.63;;;4.80;90.70;;;;;;5023764;28;20064;-75
2020/12/06 12:27:42;;;;;;;54.80;31.88;;;4.80;90.80;;;;;;5013622;28;20381;-75
2020/12/06 12:30:08;;;;;;;47.20;29.05;;;4.80;90.80;;;;;;5049691;28;20194;-75
2020/12/06 12:32:33;;;;;;;55.85;32.65;;;4.80;90.80;;;;;;5031308;28;20048;-76
2020/12/06 12:34:59;;;;;;;49.83;30.92;;;4.80;90.90;;;;;;5032306;28;20029;-76
2020/12/06 12:37:25;;;;;;;56.63;30.27;;;4.80;90.90;;;;;;5048787;28;20029;-75